createdAt,value
2023-07-25T00:05:33.055Z,12.10
2023-07-25T00:15:54.507Z,13.85
2023-07-25T00:26:17.112Z,6.95
2023-07-25T00:36:38.440Z,7.93
2023-07-25T00:47:01.145Z,6.35
2023-07-25T00:57:22.564Z,9.10
2023-07-25T01:07:45.442Z,6.90
2023-07-25T01:18:09.395Z,13.90
2023-07-25T01:28:34.717Z,9.43
2023-07-25T01:38:56.174Z,10.47
2023-07-25T01:49:18.883Z,9.75
2023-07-25T01:59:40.327Z,8.43
2023-07-25T02:10:03.390Z,10.35
2023-07-25T02:20:28.221Z,10.10
2023-07-25T02:30:51.713Z,9.60
2023-07-25T02:41:13.343Z,14.27
2023-07-25T02:51:36.307Z,11.32
2023-07-25T03:01:57.958Z,10.48
2023-07-25T03:12:21.045Z,14.30
2023-07-25T03:22:44.486Z,11.23
2023-07-25T03:33:08.025Z,14.13
2023-07-25T03:43:29.862Z,12.88
2023-07-25T03:53:52.783Z,9.27
2023-07-25T04:04:14.570Z,10.07
2023-07-25T04:14:37.683Z,11.73
2023-07-25T04:24:59.359Z,11.73
2023-07-25T04:35:22.441Z,13.75
2023-07-25T04:45:44.015Z,17.00
2023-07-25T04:56:07.283Z,11.85
2023-07-25T05:06:28.887Z,8.40
2023-07-25T05:16:52.487Z,8.23
2023-07-25T05:27:14.126Z,9.75
2023-07-25T05:37:41.641Z,13.05
2023-07-25T05:48:03.585Z,7.40
2023-07-25T05:58:26.760Z,8.55
2023-07-25T06:08:48.432Z,5.35
2023-07-25T06:19:11.282Z,10.18
2023-07-25T06:29:33.004Z,8.50
2023-07-25T06:39:56.717Z,3.72
2023-07-25T06:50:18.582Z,8.43
2023-07-25T07:00:41.704Z,8.52
2023-07-25T07:11:03.252Z,10.23
2023-07-25T07:21:26.076Z,8.63
2023-07-25T07:31:47.687Z,11.77
2023-07-25T07:42:10.544Z,5.30
2023-07-25T07:52:42.614Z,5.78
2023-07-25T08:03:07.213Z,7.85
2023-07-25T08:13:28.962Z,5.60
2023-07-25T08:23:51.817Z,5.95
2023-07-25T08:34:13.123Z,7.03
2023-07-25T08:44:37.306Z,6.15
2023-07-25T08:54:59.167Z,5.40
2023-07-25T09:05:23.052Z,4.18
2023-07-25T09:15:44.505Z,5.57
2023-07-25T09:26:09.744Z,5.80
2023-07-25T09:36:32.291Z,5.28
2023-07-25T09:46:55.162Z,5.00
2023-07-25T09:57:16.949Z,5.40
2023-07-25T10:07:41.148Z,3.00
2023-07-25T10:28:42.388Z,6.20
2023-07-25T10:49:58.267Z,8.10
2023-07-25T11:00:36.503Z,8.30
2023-07-25T11:11:04.819Z,6.32
2023-07-25T11:21:26.618Z,5.68
2023-07-25T11:31:51.182Z,3.97
2023-07-25T11:42:13.454Z,2.75
2023-07-25T11:52:37.307Z,5.32
2023-07-25T12:02:59.528Z,2.78
2023-07-25T12:13:23.920Z,4.70
2023-07-25T12:23:48.794Z,3.75
2023-07-25T12:34:13.021Z,2.90
2023-07-25T12:44:35.635Z,5.00
2023-07-25T12:54:58.773Z,4.60
2023-07-25T13:05:21.426Z,5.63
2023-07-25T13:26:06.422Z,3.75
2023-07-25T13:36:29.374Z,5.97
2023-07-25T13:46:51.769Z,4.17
2023-07-25T13:57:15.210Z,6.35
2023-07-25T14:07:36.914Z,5.57
2023-07-25T14:18:00.763Z,3.25
2023-07-25T14:28:22.484Z,2.77
2023-07-25T14:38:46.617Z,7.20
2023-07-25T14:49:08.081Z,3.15
2023-07-25T14:59:31.160Z,4.45
2023-07-25T15:09:52.718Z,5.97
2023-07-25T15:20:15.527Z,4.30
2023-07-25T15:30:37.165Z,4.53
2023-07-25T15:41:00.381Z,3.55
2023-07-25T15:51:22.220Z,6.05
2023-07-25T16:01:46.306Z,4.97
2023-07-25T16:12:08.919Z,2.03
2023-07-25T16:22:31.859Z,4.65
2023-07-25T16:32:53.415Z,3.63
2023-07-25T16:43:16.940Z,6.57
2023-07-25T16:53:38.793Z,4.50
2023-07-25T17:04:02.086Z,7.85
2023-07-25T17:14:24.197Z,3.00
2023-07-25T17:24:47.769Z,2.75
2023-07-25T17:35:17.637Z,4.70
2023-07-25T17:45:50.847Z,8.57
2023-07-25T17:56:12.634Z,5.07
2023-07-25T18:06:35.654Z,8.35
2023-07-25T18:16:57.014Z,3.45
2023-07-25T18:27:19.739Z,4.60
2023-07-25T18:37:41.648Z,5.35
2023-07-25T18:48:04.629Z,13.23
2023-07-25T18:58:28.228Z,4.57
2023-07-25T19:08:50.960Z,5.75
2023-07-25T19:19:12.427Z,3.63
2023-07-25T19:29:35.340Z,5.35
2023-07-25T19:39:58.279Z,5.23
2023-07-25T19:50:21.269Z,7.50
2023-07-25T20:00:43.212Z,8.95
2023-07-25T20:11:06.208Z,6.15
2023-07-25T20:21:27.911Z,4.97
2023-07-25T20:31:50.912Z,6.85
2023-07-25T20:42:12.736Z,4.40
2023-07-25T20:52:35.610Z,4.28
2023-07-25T21:02:57.039Z,6.28
2023-07-25T21:13:20.459Z,4.10
2023-07-25T21:23:42.294Z,5.43
2023-07-25T21:34:05.251Z,3.50
2023-07-25T21:44:27.210Z,3.90
2023-07-25T21:54:49.989Z,3.30
2023-07-25T22:05:11.302Z,3.97
2023-07-25T22:15:34.080Z,5.68
2023-07-25T22:26:00.915Z,3.95
2023-07-25T22:36:24.180Z,7.28
2023-07-25T22:46:45.942Z,4.00
2023-07-25T22:57:09.023Z,5.05
2023-07-25T23:07:30.747Z,4.78
2023-07-25T23:17:53.439Z,3.92
2023-07-25T23:28:14.832Z,8.57
2023-07-25T23:38:38.015Z,3.45
2023-07-25T23:48:59.614Z,6.75
2023-07-25T23:59:23.055Z,9.27
